createdAt,value
2024-03-09T00:01:18.578Z,14.65
2024-03-09T00:03:46.520Z,13.23
2024-03-09T00:06:14.386Z,14.25
2024-03-09T00:08:44.442Z,14.18
2024-03-09T00:11:12.420Z,13.50
2024-03-09T00:13:41.953Z,13.68
2024-03-09T00:16:10.024Z,14.25
2024-03-09T00:18:44.315Z,13.60
2024-03-09T00:21:13.738Z,14.13
2024-03-09T00:23:42.664Z,15.18
2024-03-09T00:26:11.385Z,13.40
2024-03-09T00:28:42.179Z,13.63
2024-03-09T00:31:10.681Z,13.57
2024-03-09T00:33:39.520Z,14.73
2024-03-09T00:36:08.585Z,15.55
2024-03-09T00:38:36.564Z,13.68
2024-03-09T00:41:05.794Z,14.40
2024-03-09T00:43:37.296Z,14.38
2024-03-09T00:46:08.135Z,14.25
2024-03-09T00:48:36.833Z,14.38
2024-03-09T00:51:04.872Z,13.90
2024-03-09T00:53:32.708Z,14.75
2024-03-09T00:56:00.902Z,15.35
2024-03-09T00:58:29.664Z,15.05
2024-03-09T01:00:57.541Z,13.80
2024-03-09T01:03:30.322Z,14.40
2024-03-09T01:05:58.652Z,13.48
2024-03-09T01:08:26.580Z,14.43
2024-03-09T01:10:54.447Z,14.18
2024-03-09T01:13:24.140Z,14.07
2024-03-09T01:15:52.518Z,13.32
2024-03-09T01:18:20.945Z,13.55
2024-03-09T01:20:50.130Z,13.65
2024-03-09T01:23:18.551Z,14.40
2024-03-09T01:25:46.392Z,13.55
2024-03-09T01:28:14.266Z,13.00
2024-03-09T01:30:42.052Z,15.57
2024-03-09T01:33:10.526Z,14.43
2024-03-09T01:35:38.477Z,14.90
2024-03-09T01:38:09.523Z,14.02
2024-03-09T01:40:37.457Z,13.52
2024-03-09T01:43:05.536Z,13.73
2024-03-09T01:45:34.033Z,14.90
2024-03-09T01:48:02.242Z,15.00
2024-03-09T01:50:30.118Z,15.55
2024-03-09T01:52:58.105Z,14.02
2024-03-09T01:55:30.205Z,15.02
2024-03-09T01:57:58.880Z,13.10
2024-03-09T02:00:26.925Z,14.13
2024-03-09T02:02:56.001Z,14.13
2024-03-09T02:05:26.024Z,13.93
2024-03-09T02:07:53.942Z,14.48
2024-03-09T02:10:21.998Z,12.98
2024-03-09T02:12:51.185Z,13.43
2024-03-09T02:15:19.085Z,11.77
2024-03-09T02:17:48.950Z,12.68
2024-03-09T02:20:19.397Z,11.90
2024-03-09T02:22:49.046Z,14.20
2024-03-09T02:25:20.136Z,12.90
2024-03-09T02:27:48.157Z,13.60
2024-03-09T02:30:16.666Z,12.70
2024-03-09T02:32:44.761Z,13.20
2024-03-09T02:35:12.961Z,13.07
2024-03-09T02:37:41.550Z,12.57
2024-03-09T02:40:13.219Z,13.55
2024-03-09T02:43:03.489Z,12.85
2024-03-09T02:45:31.426Z,12.00
2024-03-09T02:47:59.769Z,13.60
2024-03-09T02:50:28.921Z,14.00
2024-03-09T02:52:57.212Z,13.50
2024-03-09T02:55:27.963Z,14.57
2024-03-09T02:57:57.459Z,12.88
2024-03-09T03:00:27.630Z,12.93
2024-03-09T03:03:13.159Z,13.77
2024-03-09T03:05:43.113Z,13.05
2024-03-09T03:08:11.037Z,13.55
2024-03-09T03:10:41.028Z,11.75
2024-03-09T03:13:10.481Z,13.90
2024-03-09T03:15:39.040Z,15.23
2024-03-09T03:18:09.749Z,14.55
2024-03-09T03:20:37.802Z,13.77
2024-03-09T03:23:06.448Z,15.15
2024-03-09T03:25:35.974Z,13.77
2024-03-09T03:28:06.948Z,14.38
2024-03-09T03:30:38.084Z,14.10
2024-03-09T03:33:07.251Z,15.50
2024-03-09T03:35:35.361Z,15.63
2024-03-09T03:38:03.710Z,15.65
2024-03-09T03:40:32.321Z,13.38
2024-03-09T03:43:00.283Z,15.38
2024-03-09T03:45:28.165Z,16.33
2024-03-09T03:47:57.466Z,15.40
2024-03-09T03:50:25.318Z,16.45
2024-03-09T03:52:53.209Z,13.43
2024-03-09T03:55:21.620Z,15.65
2024-03-09T03:57:52.348Z,14.70
2024-03-09T04:00:22.408Z,15.57
2024-03-09T04:02:51.398Z,16.02
2024-03-09T04:05:20.630Z,16.70
2024-03-09T04:07:49.404Z,15.88
2024-03-09T04:10:19.780Z,15.50
2024-03-09T04:12:47.659Z,14.32
2024-03-09T04:15:15.765Z,16.45
2024-03-09T04:17:43.782Z,14.52
2024-03-09T04:20:17.194Z,17.75
2024-03-09T04:22:51.618Z,16.23
2024-03-09T04:25:20.693Z,17.85
2024-03-09T04:27:51.716Z,13.98
2024-03-09T04:30:19.554Z,17.98
2024-03-09T04:32:47.438Z,15.77
2024-03-09T04:35:15.737Z,14.68
2024-03-09T04:37:43.589Z,16.55
2024-03-09T04:40:18.304Z,16.52
2024-03-09T04:42:48.058Z,14.18
2024-03-09T04:45:20.072Z,16.20
2024-03-09T04:47:48.052Z,15.45
2024-03-09T04:50:19.571Z,15.43
2024-03-09T04:52:48.738Z,15.75
2024-03-09T04:55:23.299Z,15.68
2024-03-09T04:57:51.420Z,16.40
2024-03-09T05:00:22.288Z,17.50
2024-03-09T05:02:50.807Z,18.08
2024-03-09T05:05:20.719Z,16.42
2024-03-09T05:07:49.765Z,17.60
2024-03-09T05:10:19.582Z,19.02
2024-03-09T05:12:54.555Z,18.88
2024-03-09T05:15:22.931Z,18.83
2024-03-09T05:17:50.857Z,18.85
2024-03-09T05:20:23.899Z,18.13
2024-03-09T05:22:52.139Z,17.33
2024-03-09T05:25:22.454Z,17.88
2024-03-09T05:27:53.259Z,17.40
2024-03-09T05:30:26.572Z,16.85
2024-03-09T05:32:55.874Z,16.25
2024-03-09T05:35:24.890Z,14.93
2024-03-09T05:37:52.853Z,15.00
2024-03-09T05:40:21.471Z,15.55
2024-03-09T05:42:51.543Z,18.23
2024-03-09T05:45:22.312Z,16.70
2024-03-09T05:47:51.722Z,17.48
2024-03-09T05:50:20.160Z,16.67
2024-03-09T05:52:49.462Z,16.25
2024-03-09T05:55:18.118Z,14.85
2024-03-09T05:57:50.064Z,17.17
2024-03-09T06:00:21.459Z,16.23
2024-03-09T06:02:49.486Z,14.23
2024-03-09T06:05:17.782Z,16.95
2024-03-09T06:07:46.842Z,15.32
2024-03-09T06:10:18.482Z,17.00
2024-03-09T06:12:48.367Z,16.23
2024-03-09T06:15:17.267Z,16.98
2024-03-09T06:17:48.111Z,19.10
2024-03-09T06:20:18.486Z,17.40
2024-03-09T06:22:47.413Z,18.17
2024-03-09T06:25:24.147Z,16.67
2024-03-09T06:27:53.626Z,17.70
2024-03-09T06:30:22.841Z,16.90
2024-03-09T06:32:54.826Z,18.17
2024-03-09T06:35:26.994Z,18.08
2024-03-09T06:37:59.958Z,17.63
2024-03-09T06:40:28.148Z,17.83
2024-03-09T06:43:00.502Z,17.38
2024-03-09T06:45:28.818Z,18.70
2024-03-09T06:48:00.042Z,17.98
2024-03-09T06:50:28.705Z,15.00
2024-03-09T06:52:57.144Z,16.02
2024-03-09T06:55:26.979Z,16.15
2024-03-09T06:57:55.055Z,16.98
2024-03-09T07:00:26.579Z,15.80
2024-03-09T07:02:54.993Z,16.02
2024-03-09T07:05:25.722Z,14.38
2024-03-09T07:07:53.570Z,15.05
2024-03-09T07:10:22.671Z,18.00
2024-03-09T07:12:51.094Z,16.08
2024-03-09T07:15:21.468Z,16.65
2024-03-09T07:17:50.985Z,16.48
2024-03-09T07:20:20.168Z,16.13
2024-03-09T07:22:51.130Z,14.40
2024-03-09T07:25:24.842Z,16.90
2024-03-09T07:27:53.424Z,16.20
2024-03-09T07:30:21.168Z,18.58
2024-03-09T07:32:50.738Z,19.50
2024-03-09T07:35:20.864Z,15.98
2024-03-09T07:37:53.513Z,17.17
2024-03-09T07:40:23.027Z,15.13
2024-03-09T07:42:51.527Z,15.38
2024-03-09T07:45:19.431Z,16.50
2024-03-09T07:47:50.714Z,15.75
2024-03-09T07:50:19.981Z,15.50
2024-03-09T07:52:49.944Z,15.00
2024-03-09T07:55:22.365Z,15.70
2024-03-09T07:57:50.593Z,15.85
2024-03-09T08:00:20.408Z,16.42
2024-03-09T08:02:49.191Z,15.88
2024-03-09T08:05:17.840Z,15.15
2024-03-09T08:07:46.671Z,15.27
2024-03-09T08:10:15.434Z,16.00
2024-03-09T08:12:44.813Z,15.75
2024-03-09T08:15:13.856Z,14.77
2024-03-09T08:17:41.759Z,15.13
2024-03-09T08:20:10.811Z,15.68
2024-03-09T08:22:41.100Z,14.45
2024-03-09T08:25:10.542Z,15.27
2024-03-09T08:27:39.532Z,14.63
2024-03-09T08:30:14.445Z,14.70
2024-03-09T08:32:43.546Z,12.90
2024-03-09T08:35:11.443Z,13.15
2024-03-09T08:37:39.725Z,13.02
2024-03-09T08:40:10.118Z,12.93
2024-03-09T08:42:38.136Z,13.05
2024-03-09T08:45:10.474Z,14.05
2024-03-09T08:47:38.476Z,13.75
2024-03-09T08:50:11.602Z,13.27
2024-03-09T08:52:40.112Z,14.27
2024-03-09T08:55:11.535Z,13.90
2024-03-09T08:57:39.838Z,14.25
2024-03-09T09:00:11.395Z,14.38
2024-03-09T09:02:39.255Z,12.70
2024-03-09T09:05:12.516Z,13.32
2024-03-09T09:07:41.640Z,14.10
2024-03-09T09:10:12.502Z,13.95
2024-03-09T09:12:40.978Z,14.48
2024-03-09T09:15:11.596Z,13.85
2024-03-09T09:17:41.333Z,14.25
2024-03-09T09:20:12.460Z,13.82
2024-03-09T09:22:40.769Z,14.45
2024-03-09T09:25:10.685Z,13.48
2024-03-09T09:27:39.331Z,13.00
2024-03-09T09:30:08.140Z,14.18
2024-03-09T09:32:39.465Z,12.32
2024-03-09T09:35:07.893Z,12.32
2024-03-09T09:37:36.034Z,12.27
2024-03-09T09:40:04.077Z,12.10
2024-03-09T09:42:33.367Z,12.60
2024-03-09T09:45:02.056Z,11.60
2024-03-09T09:47:31.669Z,11.57
2024-03-09T09:50:02.538Z,11.73
2024-03-09T09:52:33.839Z,11.38
2024-03-09T09:55:03.199Z,12.07
2024-03-09T09:57:32.263Z,11.13
2024-03-09T10:00:00.354Z,11.63
2024-03-09T10:02:28.359Z,11.57
2024-03-09T10:04:56.946Z,11.45
2024-03-09T10:07:26.686Z,11.18
2024-03-09T10:09:54.813Z,12.45
2024-03-09T10:12:23.859Z,11.07
2024-03-09T10:14:53.024Z,12.13
2024-03-09T10:17:22.360Z,12.27
2024-03-09T10:19:51.256Z,11.35
2024-03-09T10:22:19.343Z,11.73
2024-03-09T10:24:55.613Z,11.70
2024-03-09T10:27:27.768Z,11.05
2024-03-09T10:30:11.783Z,10.55
2024-03-09T10:32:42.535Z,11.50
2024-03-09T10:35:12.406Z,11.18
2024-03-09T10:37:41.318Z,11.77
2024-03-09T10:40:14.050Z,12.15
2024-03-09T10:42:44.896Z,11.93
2024-03-09T10:45:15.459Z,11.90
2024-03-09T10:47:48.339Z,12.05
2024-03-09T10:50:23.695Z,11.18
2024-03-09T10:53:02.804Z,12.02
2024-03-09T10:55:45.590Z,11.80
2024-03-09T11:00:50.789Z,10.57
2024-03-09T11:03:24.099Z,10.30
2024-03-09T11:05:55.128Z,11.10
2024-03-09T11:08:24.743Z,10.27
2024-03-09T11:10:54.998Z,10.07
2024-03-09T11:13:23.646Z,9.18
2024-03-09T11:15:56.267Z,9.48
2024-03-09T11:18:24.894Z,8.68
2024-03-09T11:20:55.314Z,9.13
2024-03-09T11:23:26.389Z,10.00
2024-03-09T11:25:59.255Z,9.18
2024-03-09T11:28:29.888Z,9.40
2024-03-09T11:31:11.968Z,10.10
2024-03-09T11:33:50.759Z,10.75
2024-03-09T11:36:38.797Z,10.02
2024-03-09T11:39:06.820Z,10.18
2024-03-09T11:41:37.605Z,9.77
2024-03-09T11:44:06.617Z,9.88
2024-03-09T11:46:36.410Z,10.13
2024-03-09T11:49:05.714Z,10.63
2024-03-09T11:51:35.993Z,10.60
2024-03-09T11:54:05.172Z,10.45
2024-03-09T11:56:33.461Z,10.85
2024-03-09T11:59:03.530Z,10.23
2024-03-09T12:01:31.379Z,10.90
2024-03-09T12:04:01.676Z,10.75
2024-03-09T12:06:30.562Z,10.13
2024-03-09T12:08:59.205Z,11.27
2024-03-09T12:11:30.293Z,11.10
2024-03-09T12:13:58.456Z,11.40
2024-03-09T12:16:29.098Z,10.68
2024-03-09T12:18:59.596Z,10.25
2024-03-09T12:21:29.117Z,11.02
2024-03-09T12:23:59.800Z,10.45
2024-03-09T12:26:32.090Z,10.77
2024-03-09T12:29:04.569Z,10.20
2024-03-09T12:31:35.226Z,10.18
2024-03-09T12:34:06.487Z,10.27
2024-03-09T12:36:35.214Z,11.10
2024-03-09T12:39:17.511Z,10.20
2024-03-09T12:41:51.028Z,9.85
2024-03-09T12:44:19.347Z,10.45
2024-03-09T12:46:48.946Z,10.88
2024-03-09T12:49:17.043Z,11.20
2024-03-09T12:51:47.957Z,9.93
2024-03-09T12:54:15.993Z,10.63
2024-03-09T12:56:48.889Z,10.40
2024-03-09T12:59:26.805Z,10.20
2024-03-09T13:01:56.717Z,10.05
2024-03-09T13:04:27.664Z,9.90
2024-03-09T13:06:58.926Z,10.43
2024-03-09T13:09:32.441Z,10.23
2024-03-09T13:12:01.662Z,10.45
2024-03-09T13:14:32.141Z,9.25
2024-03-09T13:17:01.414Z,9.88
2024-03-09T13:19:29.372Z,10.63
2024-03-09T13:21:59.252Z,10.00
2024-03-09T13:24:29.041Z,10.20
2024-03-09T13:26:57.328Z,10.45
2024-03-09T13:29:29.741Z,10.20
2024-03-09T13:31:59.101Z,10.23
2024-03-09T13:34:31.176Z,10.18
2024-03-09T13:37:00.074Z,10.40
2024-03-09T13:39:35.688Z,10.38
2024-03-09T13:42:09.741Z,10.30
2024-03-09T13:44:38.495Z,10.48
2024-03-09T13:47:06.898Z,10.07
2024-03-09T13:49:37.241Z,10.20
2024-03-09T13:52:05.891Z,9.52
2024-03-09T13:54:33.733Z,10.05
2024-03-09T13:57:01.549Z,9.43
2024-03-09T13:59:29.889Z,10.82
2024-03-09T14:02:00.553Z,10.18
2024-03-09T14:04:29.825Z,10.40
2024-03-09T14:07:07.643Z,9.68
2024-03-09T14:09:49.397Z,10.85
2024-03-09T14:12:21.312Z,9.40
2024-03-09T14:14:53.605Z,10.43
2024-03-09T14:17:21.943Z,10.25
2024-03-09T14:19:52.211Z,10.77
2024-03-09T14:22:27.498Z,10.30
2024-03-09T14:24:58.472Z,9.45
2024-03-09T14:27:26.918Z,10.05
2024-03-09T14:29:55.391Z,9.70
2024-03-09T14:32:23.836Z,9.70
2024-03-09T14:34:52.066Z,10.07
2024-03-09T14:37:21.809Z,10.38
2024-03-09T14:39:49.700Z,9.80
2024-03-09T14:42:18.951Z,10.60
2024-03-09T14:44:48.488Z,10.82
2024-03-09T14:47:16.515Z,10.38
2024-03-09T14:49:45.424Z,10.77
2024-03-09T14:52:14.287Z,9.75
2024-03-09T14:54:43.885Z,10.52
2024-03-09T14:57:13.353Z,10.52
2024-03-09T14:59:41.255Z,10.05
2024-03-09T15:02:08.769Z,10.40
2024-03-09T15:04:37.026Z,9.75
2024-03-09T15:07:06.963Z,9.20
2024-03-09T15:09:38.750Z,9.68
2024-03-09T15:12:09.948Z,10.25
2024-03-09T15:14:37.870Z,9.60
2024-03-09T15:17:10.819Z,10.18
2024-03-09T15:19:38.902Z,8.98
2024-03-09T15:22:06.749Z,10.02
2024-03-09T15:24:34.634Z,10.38
2024-03-09T15:27:04.051Z,9.98
2024-03-09T15:29:34.960Z,9.52
2024-03-09T15:32:07.062Z,9.52
2024-03-09T15:34:35.071Z,9.55
2024-03-09T15:37:02.910Z,9.55
2024-03-09T15:39:33.061Z,8.95
2024-03-09T15:42:01.636Z,9.93
2024-03-09T15:44:29.519Z,9.70
2024-03-09T15:46:58.750Z,9.57
2024-03-09T15:49:28.796Z,9.40
2024-03-09T15:51:56.654Z,9.90
2024-03-09T15:54:25.933Z,10.15
2024-03-09T15:56:54.018Z,9.48
2024-03-09T15:59:22.617Z,9.20
2024-03-09T16:01:52.903Z,9.90
2024-03-09T16:04:22.502Z,11.00
2024-03-09T16:06:50.814Z,10.50
2024-03-09T16:09:22.008Z,9.98
2024-03-09T16:11:51.240Z,10.10
2024-03-09T16:16:46.933Z,9.25
2024-03-09T16:19:15.773Z,9.60
2024-03-09T16:21:44.988Z,9.45
2024-03-09T16:24:12.829Z,10.40
2024-03-09T16:26:40.955Z,9.70
2024-03-09T16:29:08.995Z,10.55
2024-03-09T16:31:37.981Z,10.77
2024-03-09T16:34:07.990Z,10.52
2024-03-09T16:36:36.558Z,11.00
2024-03-09T16:39:06.631Z,12.00
2024-03-09T16:41:34.457Z,11.25
2024-03-09T16:44:04.801Z,10.82
2024-03-09T16:46:33.189Z,11.13
2024-03-09T16:49:01.087Z,10.50
2024-03-09T16:51:28.917Z,11.27
2024-03-09T16:53:56.768Z,11.07
2024-03-09T16:56:29.658Z,11.25
2024-03-09T16:58:59.763Z,11.60
2024-03-09T17:01:31.193Z,9.88
2024-03-09T17:04:02.875Z,11.63
2024-03-09T17:06:33.694Z,11.50
2024-03-09T17:09:01.717Z,11.80
2024-03-09T17:11:32.002Z,11.70
2024-03-09T17:14:00.138Z,12.40
2024-03-09T17:16:28.894Z,10.48
2024-03-09T17:18:56.875Z,12.43
2024-03-09T17:21:25.638Z,12.40
2024-03-09T17:23:55.125Z,13.40
2024-03-09T17:26:23.261Z,13.20
2024-03-09T17:28:53.589Z,12.07
2024-03-09T17:31:22.777Z,14.07
2024-03-09T17:33:51.397Z,14.10
2024-03-09T17:36:19.721Z,12.80
2024-03-09T17:38:48.769Z,12.40
2024-03-09T17:41:18.720Z,13.05
2024-03-09T17:43:48.274Z,12.90
2024-03-09T17:46:18.215Z,14.40
2024-03-09T17:48:46.232Z,20.40
2024-03-09T17:51:17.373Z,21.38
2024-03-09T17:53:46.533Z,22.27
2024-03-09T17:56:16.414Z,21.33
2024-03-09T17:58:46.962Z,25.20
2024-03-09T18:01:15.086Z,23.23
2024-03-09T18:03:44.971Z,19.75
2024-03-09T18:06:13.775Z,19.42
2024-03-09T18:08:44.792Z,19.15
2024-03-09T18:11:12.925Z,21.05
2024-03-09T18:13:40.892Z,20.23
2024-03-09T18:16:13.004Z,17.70
2024-03-09T18:18:41.009Z,19.05
2024-03-09T18:21:11.334Z,17.70
2024-03-09T18:23:39.254Z,15.60
2024-03-09T18:26:09.734Z,16.77
2024-03-09T18:28:38.062Z,15.18
2024-03-09T18:31:08.999Z,15.50
2024-03-09T18:33:36.950Z,14.02
2024-03-09T18:36:06.167Z,17.15
2024-03-09T18:38:35.518Z,13.65
2024-03-09T18:41:06.179Z,13.85
2024-03-09T18:43:34.283Z,15.02
2024-03-09T18:46:03.180Z,15.35
2024-03-09T18:48:31.438Z,15.93
2024-03-09T18:50:59.316Z,14.15
2024-03-09T18:53:27.161Z,14.13
2024-03-09T18:55:56.525Z,15.60
2024-03-09T18:58:24.395Z,16.00
2024-03-09T19:00:52.239Z,15.77
2024-03-09T19:03:22.346Z,18.17
2024-03-09T19:05:51.042Z,20.77
2024-03-09T19:08:19.293Z,20.73
2024-03-09T19:10:47.351Z,16.30
2024-03-09T19:13:18.171Z,16.85
2024-03-09T19:15:46.169Z,19.63
2024-03-09T19:18:15.867Z,20.98
2024-03-09T19:20:44.189Z,23.63
2024-03-09T19:23:12.642Z,40.38
2024-03-09T19:25:44.333Z,33.80
2024-03-09T19:28:12.996Z,26.67
2024-03-09T19:30:42.195Z,32.63
2024-03-09T19:33:10.117Z,27.80
2024-03-09T19:35:38.893Z,25.17
2024-03-09T19:38:06.943Z,25.80
2024-03-09T19:40:34.824Z,22.63
2024-03-09T19:43:02.818Z,20.95
2024-03-09T19:45:31.965Z,17.08
2024-03-09T19:48:01.679Z,18.05
2024-03-09T19:50:32.901Z,18.15
2024-03-09T19:53:00.833Z,15.65
2024-03-09T19:55:30.604Z,16.58
2024-03-09T19:57:59.402Z,15.40
2024-03-09T20:00:29.880Z,17.33
2024-03-09T20:02:58.306Z,17.08
2024-03-09T20:05:29.603Z,18.17
2024-03-09T20:07:59.358Z,15.95
2024-03-09T20:10:30.669Z,18.08
2024-03-09T20:13:00.930Z,19.63
2024-03-09T20:15:29.549Z,18.15
2024-03-09T20:17:59.044Z,17.88
2024-03-09T20:20:29.979Z,17.30
2024-03-09T20:22:58.972Z,15.82
2024-03-09T20:25:27.849Z,25.80
2024-03-09T20:27:56.231Z,20.10
2024-03-09T20:30:24.521Z,18.48
2024-03-09T20:32:52.820Z,16.98
2024-03-09T20:35:20.843Z,18.38
2024-03-09T20:37:51.268Z,18.75
2024-03-09T20:40:20.926Z,16.70
2024-03-09T20:42:50.448Z,15.52
2024-03-09T20:45:19.916Z,15.93
2024-03-09T20:47:48.178Z,17.58
2024-03-09T20:50:17.704Z,18.08
2024-03-09T20:52:48.591Z,16.85
2024-03-09T20:55:17.925Z,16.65
2024-03-09T20:57:45.754Z,16.92
2024-03-09T21:00:19.220Z,16.65
2024-03-09T21:02:47.477Z,16.35
2024-03-09T21:05:15.520Z,16.08
2024-03-09T21:07:43.683Z,16.23
2024-03-09T21:10:12.513Z,17.20
2024-03-09T21:12:42.379Z,14.85
2024-03-09T21:15:10.883Z,17.08
2024-03-09T21:17:38.915Z,16.05
2024-03-09T21:20:13.014Z,16.83
2024-03-09T21:22:41.378Z,16.52
2024-03-09T21:25:11.605Z,15.85
2024-03-09T21:27:43.656Z,17.27
2024-03-09T21:30:16.042Z,16.25
2024-03-09T21:32:48.653Z,17.17
2024-03-09T21:35:19.580Z,16.95
2024-03-09T21:37:52.538Z,17.88
2024-03-09T21:42:52.431Z,16.98
2024-03-09T21:45:20.920Z,16.58
2024-03-09T21:47:49.296Z,16.80
2024-03-09T21:50:22.688Z,16.67
2024-03-09T21:52:52.815Z,15.23
2024-03-09T21:55:20.802Z,15.02
2024-03-09T21:57:48.679Z,16.25
2024-03-09T22:00:25.856Z,15.05
2024-03-09T22:02:56.597Z,15.52
2024-03-09T22:05:27.188Z,15.85
2024-03-09T22:07:57.091Z,15.13
2024-03-09T22:10:25.517Z,15.95
2024-03-09T22:12:55.968Z,15.48
2024-03-09T22:15:28.011Z,15.63
2024-03-09T22:17:57.304Z,15.55
2024-03-09T22:20:26.281Z,15.00
2024-03-09T22:22:54.368Z,14.93
2024-03-09T22:25:26.877Z,15.30
2024-03-09T22:27:55.526Z,16.60
2024-03-09T22:30:23.488Z,16.00
2024-03-09T22:32:53.631Z,14.68
2024-03-09T22:35:22.503Z,16.55
2024-03-09T22:37:51.570Z,15.45
2024-03-09T22:40:21.125Z,16.65
2024-03-09T22:42:49.124Z,16.92
2024-03-09T22:45:17.706Z,16.65
2024-03-09T22:47:47.264Z,14.55
2024-03-09T22:50:18.748Z,16.30
2024-03-09T22:52:46.733Z,15.70
2024-03-09T22:55:16.250Z,17.23
2024-03-09T22:57:44.803Z,17.27
2024-03-09T23:00:26.453Z,17.60
2024-03-09T23:06:36.509Z,16.67
2024-03-09T23:09:04.523Z,16.38
2024-03-09T23:11:33.032Z,17.08
2024-03-09T23:14:02.947Z,15.85
2024-03-09T23:16:31.557Z,18.60
2024-03-09T23:18:59.563Z,16.77
2024-03-09T23:21:27.657Z,17.00
2024-03-09T23:23:56.860Z,15.93
2024-03-09T23:26:26.392Z,17.80
2024-03-09T23:28:54.295Z,16.08
2024-03-09T23:31:22.564Z,16.25
2024-03-09T23:33:50.719Z,16.60
2024-03-09T23:36:18.476Z,17.42
2024-03-09T23:38:47.213Z,18.17
2024-03-09T23:41:17.081Z,17.48
2024-03-09T23:43:46.894Z,16.58
2024-03-09T23:46:14.691Z,18.13
2024-03-09T23:48:42.680Z,18.65
2024-03-09T23:51:11.638Z,16.92
2024-03-09T23:53:39.488Z,16.55
2024-03-09T23:56:08.664Z,16.77
2024-03-09T23:58:40.496Z,17.90
